createdAt,value
2022-11-13T00:00:14.291Z,983.16
2022-11-13T00:05:45.938Z,983.03
2022-11-13T00:11:17.788Z,983.04
2022-11-13T00:16:49.515Z,983.12
2022-11-13T00:22:22.506Z,983.17
2022-11-13T00:27:52.919Z,983.3
2022-11-13T00:34:33.489Z,983.07
2022-11-13T00:39:00.821Z,982.41
2022-11-13T00:44:32.614Z,982.48
2022-11-13T00:50:04.308Z,981.75
2022-11-13T00:55:36.144Z,981.86
2022-11-13T01:01:08.870Z,981.64
2022-11-13T01:06:39.525Z,981.33
2022-11-13T01:12:11.078Z,981.23
2022-11-13T01:17:43.264Z,981.5
2022-11-13T01:23:14.640Z,981.49
2022-11-13T01:28:46.839Z,981.4
2022-11-13T01:34:18.216Z,981.25
2022-11-13T01:39:56.563Z,980.85
2022-11-13T01:45:28.139Z,980.84
2022-11-13T01:51:00.083Z,980.5
2022-11-13T01:56:31.858Z,980.59
2022-11-13T02:02:03.813Z,980.27
2022-11-13T02:07:35.295Z,980.1
2022-11-13T02:13:07.267Z,980.15
2022-11-13T02:18:38.961Z,979.92
2022-11-13T02:24:10.588Z,979.73
2022-11-13T02:29:42.623Z,979.97
2022-11-13T02:35:14.171Z,979.52
2022-11-13T02:40:49.975Z,979.61
2022-11-13T02:46:21.959Z,979.58
2022-11-13T02:51:54.303Z,979.49
2022-11-13T02:57:25.359Z,979.28
2022-11-13T03:02:56.831Z,979.34
2022-11-13T03:08:31.865Z,979.37
2022-11-13T03:14:00.595Z,979.44
2022-11-13T03:19:31.970Z,979.43
2022-11-13T03:25:11.432Z,979.52
2022-11-13T03:30:35.456Z,979.43
2022-11-13T03:36:07.443Z,979.24
2022-11-13T03:41:43.538Z,979.48
2022-11-13T03:47:15.079Z,979.16
2022-11-13T03:52:46.929Z,979.56
2022-11-13T03:58:18.653Z,979.39
2022-11-13T04:03:50.918Z,979.27
2022-11-13T04:09:22.330Z,979.4
2022-11-13T04:14:53.752Z,979.57
2022-11-13T04:20:25.526Z,979.38
2022-11-13T04:25:57.323Z,978.64
2022-11-13T04:31:29.178Z,979.13
2022-11-13T04:37:00.830Z,979.62
2022-11-13T04:42:36.762Z,979.06
2022-11-13T04:48:08.700Z,978.82
2022-11-13T04:53:40.994Z,978.68
2022-11-13T04:59:12.054Z,978.59
2022-11-13T05:04:43.826Z,978.83
2022-11-13T05:10:15.477Z,978.67
2022-11-13T05:15:46.990Z,978.68
2022-11-13T05:21:18.974Z,978.51
2022-11-13T05:26:50.416Z,978.1
2022-11-13T05:32:22.328Z,978.13
2022-11-13T05:37:53.821Z,978.41
2022-11-13T05:43:30.053Z,978.37
2022-11-13T05:49:02.116Z,978.06
2022-11-13T05:54:33.540Z,978.36
2022-11-13T06:00:05.490Z,977.99
2022-11-13T06:05:36.912Z,978.7
2022-11-13T06:11:08.781Z,978.97
2022-11-13T06:16:40.568Z,978.67
2022-11-13T06:22:12.317Z,978.63
2022-11-13T06:27:43.709Z,979.14
2022-11-13T06:33:15.837Z,979.71
2022-11-13T06:38:47.531Z,979.09
2022-11-13T06:44:23.512Z,978.57
2022-11-13T06:49:55.460Z,978.94
2022-11-13T06:55:27.413Z,979.53
2022-11-13T07:00:58.529Z,978.82
2022-11-13T07:06:30.183Z,979.1
2022-11-13T07:12:02.430Z,979.0
2022-11-13T07:17:33.855Z,979.63
2022-11-13T07:23:05.320Z,980.15
2022-11-13T07:28:37.002Z,980.09
2022-11-13T07:34:09.195Z,980.04
2022-11-13T07:39:40.500Z,980.38
2022-11-13T07:45:16.779Z,979.72
2022-11-13T07:50:48.576Z,978.99
2022-11-13T07:56:24.028Z,979.18
2022-11-13T08:01:52.099Z,979.44
2022-11-13T08:07:23.707Z,980.32
2022-11-13T08:12:55.644Z,979.35
2022-11-13T08:18:29.320Z,978.89
2022-11-13T08:23:58.968Z,979.56
2022-11-13T08:29:31.451Z,979.18
2022-11-13T08:35:02.398Z,979.94
2022-11-13T08:40:34.443Z,980.41
2022-11-13T08:46:10.247Z,980.13
2022-11-13T08:51:41.970Z,978.56
2022-11-13T08:57:14.713Z,981.01
2022-11-13T09:02:45.558Z,980.54
2022-11-13T09:08:17.250Z,979.64
2022-11-13T09:13:56.260Z,980.17
2022-11-13T09:19:27.625Z,981.9
2022-11-13T09:24:59.471Z,981.3
2022-11-13T09:30:31.075Z,980.92
2022-11-13T09:36:02.870Z,982.32
2022-11-13T09:41:34.393Z,982.07
2022-11-13T09:47:12.582Z,982.92
2022-11-13T09:52:44.860Z,982.91
2022-11-13T09:58:15.931Z,981.62
2022-11-13T10:04:05.140Z,981.99
2022-11-13T10:09:20.998Z,981.52
2022-11-13T10:14:51.239Z,982.37
2022-11-13T10:20:22.834Z,982.64
2022-11-13T10:25:54.875Z,983.19
2022-11-13T10:31:27.169Z,982.95
2022-11-13T10:36:58.054Z,982.89
2022-11-13T10:42:29.796Z,982.77
2022-11-13T10:48:07.164Z,983.94
2022-11-13T10:53:38.096Z,983.48
2022-11-13T10:59:09.636Z,983.82
2022-11-13T11:04:41.484Z,984.55
2022-11-13T11:10:13.007Z,985.26
2022-11-13T11:15:45.527Z,985.2
2022-11-13T11:21:16.412Z,984.39
2022-11-13T11:26:48.195Z,984.65
2022-11-13T11:32:19.787Z,984.15
2022-11-13T11:37:51.675Z,985.08
2022-11-13T11:43:23.421Z,985.43
2022-11-13T11:49:00.166Z,985.72
2022-11-13T11:54:31.047Z,985.29
2022-11-13T12:00:02.925Z,985.75
2022-11-13T12:05:34.885Z,985.35
2022-11-13T12:11:06.600Z,985.16
2022-11-13T12:16:37.939Z,984.5
2022-11-13T12:22:10.112Z,984.7
2022-11-13T12:27:41.697Z,985.07
2022-11-13T12:33:13.354Z,985.01
2022-11-13T12:38:45.127Z,984.45
2022-11-13T12:44:16.859Z,983.28
2022-11-13T12:49:52.874Z,982.66
2022-11-13T12:55:24.882Z,983.17
2022-11-13T13:00:56.501Z,983.33
2022-11-13T13:06:28.093Z,983.33
2022-11-13T13:11:59.613Z,983.72
2022-11-13T13:17:31.491Z,983.37
2022-11-13T13:23:09.406Z,983.29
2022-11-13T13:28:34.830Z,983.48
2022-11-13T13:34:06.437Z,983.35
2022-11-13T13:39:38.253Z,983.23
2022-11-13T13:45:10.088Z,983.15
2022-11-13T13:50:48.129Z,983.31
2022-11-13T13:56:19.818Z,983.25
2022-11-13T14:01:52.149Z,982.83
2022-11-13T14:07:23.726Z,983.08
2022-11-13T14:12:55.038Z,982.56
2022-11-13T14:18:28.108Z,982.84
2022-11-13T14:23:58.935Z,981.93
2022-11-13T14:29:31.326Z,982.88
2022-11-13T14:35:02.599Z,982.89
2022-11-13T14:40:33.742Z,982.78
2022-11-13T14:46:05.688Z,982.89
2022-11-13T14:51:41.903Z,982.85
2022-11-13T14:57:13.407Z,982.87
2022-11-13T15:02:45.193Z,982.74
2022-11-13T15:08:16.943Z,982.61
2022-11-13T15:13:50.499Z,982.53
2022-11-13T15:19:19.988Z,982.31
2022-11-13T15:24:51.747Z,982.09
2022-11-13T15:30:25.011Z,981.99
2022-11-13T15:35:55.170Z,981.64
2022-11-13T15:41:27.199Z,981.37
2022-11-13T15:46:58.686Z,981.0
2022-11-13T15:52:35.174Z,980.87
2022-11-13T15:58:06.770Z,980.8
2022-11-13T16:03:38.347Z,980.45
2022-11-13T16:09:10.974Z,980.36
2022-11-13T16:14:41.928Z,980.06
2022-11-13T16:20:13.954Z,980.06
2022-11-13T16:25:45.341Z,979.86
2022-11-13T16:31:16.805Z,979.73
2022-11-13T16:36:48.486Z,979.89
2022-11-13T16:42:20.287Z,979.9
2022-11-13T16:47:52.193Z,979.7
2022-11-13T16:53:29.065Z,979.63
2022-11-13T16:59:00.197Z,979.49
2022-11-13T17:04:32.228Z,979.39
2022-11-13T17:10:33.374Z,979.26
2022-11-13T17:15:34.979Z,979.08
2022-11-13T17:21:06.891Z,979.08
2022-11-13T17:26:39.191Z,978.94
2022-11-13T17:32:10.150Z,978.82
2022-11-13T17:37:42.132Z,978.75
2022-11-13T17:43:13.836Z,978.75
2022-11-13T17:48:45.301Z,978.51
2022-11-13T17:54:21.798Z,978.44
2022-11-13T17:59:53.187Z,978.45
2022-11-13T18:05:24.905Z,978.42
2022-11-13T18:10:56.611Z,978.33
2022-11-13T18:16:28.412Z,978.09
2022-11-13T18:22:00.249Z,977.8
2022-11-13T18:27:31.779Z,977.9
2022-11-13T18:33:03.618Z,978.15
2022-11-13T18:38:35.528Z,978.2
2022-11-13T18:44:07.051Z,978.13
2022-11-13T18:49:38.672Z,978.04
2022-11-13T18:55:14.935Z,977.88
2022-11-13T19:00:46.879Z,977.69
2022-11-13T19:06:18.627Z,977.74
2022-11-13T19:11:50.179Z,977.62
2022-11-13T19:17:22.041Z,977.88
2022-11-13T19:22:53.943Z,977.9
2022-11-13T19:28:25.438Z,977.75
2022-11-13T19:33:56.910Z,977.82
2022-11-13T19:39:29.263Z,977.78
2022-11-13T19:45:00.258Z,977.78
2022-11-13T19:50:32.415Z,977.71
2022-11-13T19:56:08.142Z,977.66
2022-11-13T20:01:40.078Z,977.54
2022-11-13T20:07:12.127Z,977.42
2022-11-13T20:12:43.615Z,977.35
2022-11-13T20:18:15.304Z,977.35
2022-11-13T20:23:47.172Z,977.21
2022-11-13T20:29:18.780Z,977.08
2022-11-13T20:34:50.436Z,977.16
2022-11-13T20:40:21.923Z,977.15
2022-11-13T20:45:53.693Z,977.09
2022-11-13T20:51:25.467Z,977.07
2022-11-13T20:57:01.815Z,977.09
2022-11-13T21:02:33.555Z,977.29
2022-11-13T21:08:05.399Z,976.95
2022-11-13T21:13:36.838Z,976.96
2022-11-13T21:19:08.856Z,976.44
2022-11-13T21:24:40.556Z,976.09
2022-11-13T21:30:12.075Z,976.14
2022-11-13T21:35:44.421Z,976.4
2022-11-13T21:41:15.551Z,976.27
2022-11-13T21:46:47.520Z,976.04
2022-11-13T21:52:18.915Z,976.1
2022-11-13T21:57:55.080Z,975.64
2022-11-13T22:03:26.832Z,975.8
2022-11-13T22:08:58.654Z,975.62
2022-11-13T22:14:30.087Z,975.48
2022-11-13T22:20:02.533Z,975.56
2022-11-13T22:25:33.643Z,975.5
2022-11-13T22:31:05.539Z,975.38
2022-11-13T22:36:37.076Z,975.12
2022-11-13T22:42:09.107Z,975.19
2022-11-13T22:47:40.583Z,974.79
2022-11-13T22:53:12.311Z,974.48
2022-11-13T22:58:48.391Z,974.69
2022-11-13T23:04:19.935Z,974.7
2022-11-13T23:09:51.997Z,974.61
2022-11-13T23:15:23.796Z,974.54
2022-11-13T23:20:55.251Z,974.77
2022-11-13T23:26:27.209Z,974.64
2022-11-13T23:31:58.935Z,974.53
2022-11-13T23:37:30.423Z,974.35
2022-11-13T23:43:02.558Z,974.27
2022-11-13T23:48:33.967Z,974.31
2022-11-13T23:54:05.791Z,974.38
2022-11-13T23:59:43.943Z,974.29
